Time;durP1;ratioP1;P1;durP2;ratioP2;P2;SDS_P1;SDS_P2;PMS_P1;PMS_P2;Temp;Humidity;BMP_temperature;BMP_pressure;BME280_temperature;BME280_humidity;BME280_pressure;Samples;Min_cycle;Max_cycle;Signal;HPM_P1;HPM_P2
2021/10/29 00:01:14;;;;;;;31.17;15.77;;;;;;;;;;5091940;28;20052;-59
2021/10/29 00:03:41;;;;;;;32.72;17.90;;;;;;;;;;5092164;28;20070;-59
2021/10/29 00:06:10;;;;;;;34.33;16.92;;;;;;;;;;5091895;28;20416;-60
2021/10/29 00:08:37;;;;;;;31.65;16.02;;;;;;;;;;5091998;28;20048;-58
2021/10/29 00:11:04;;;;;;;35.50;16.88;;;;;;;;;;5091856;28;20059;-59
2021/10/29 00:13:31;;;;;;;34.58;18.65;;;;;;;;;;5092093;28;20130;-59
2021/10/29 00:15:57;;;;;;;33.60;17.05;;;;;;;;;;5091666;28;20101;-59
2021/10/29 00:18:25;;;;;;;33.28;18.02;;;;;;;;;;5091644;28;20048;-60
2021/10/29 00:20:52;;;;;;;31.83;17.17;;;;;;;;;;5091949;28;20105;-60
2021/10/29 00:23:21;;;;;;;31.98;18.17;;;;;;;;;;5091573;28;20052;-60
2021/10/29 00:25:48;;;;;;;34.92;17.55;;;;;;;;;;5091881;28;20503;-59
2021/10/29 00:28:16;;;;;;;36.15;17.65;;;;;;;;;;5093339;28;20489;-59
2021/10/29 00:30:43;;;;;;;32.47;17.63;;;;;;;;;;5095422;28;20401;-60
2021/10/29 00:33:10;;;;;;;30.05;16.70;;;;;;;;;;5095456;28;20048;-58
2021/10/29 00:35:36;;;;;;;32.75;17.13;;;;;;;;;;5095491;28;20581;-58
2021/10/29 00:38:03;;;;;;;32.30;17.33;;;;;;;;;;5095246;28;20054;-58
2021/10/29 00:40:32;;;;;;;33.47;16.58;;;;;;;;;;5095355;28;20470;-60
2021/10/29 00:42:59;;;;;;;32.33;17.88;;;;;;;;;;5095149;28;20048;-59
2021/10/29 00:45:26;;;;;;;29.38;16.05;;;;;;;;;;5095116;28;20047;-59
2021/10/29 00:47:53;;;;;;;31.90;16.58;;;;;;;;;;5095367;28;20477;-60
2021/10/29 00:50:21;;;;;;;32.28;17.65;;;;;;;;;;5095129;28;20055;-60
2021/10/29 00:52:49;;;;;;;34.38;18.58;;;;;;;;;;5095189;28;20080;-59
2021/10/29 00:55:16;;;;;;;32.83;17.90;;;;;;;;;;5094808;28;20052;-59
2021/10/29 00:57:44;;;;;;;29.88;16.33;;;;;;;;;;5094824;28;20047;-59
2021/10/29 01:00:13;;;;;;;32.50;17.42;;;;;;;;;;5094825;28;20044;-55
2021/10/29 01:02:40;;;;;;;34.45;18.05;;;;;;;;;;5094657;28;20055;-59
2021/10/29 01:05:08;;;;;;;30.55;16.60;;;;;;;;;;5094742;28;20051;-57
2021/10/29 01:07:36;;;;;;;34.67;17.88;;;;;;;;;;5094844;28;20519;-56
2021/10/29 01:10:04;;;;;;;32.60;17.40;;;;;;;;;;5094652;28;20059;-58
2021/10/29 01:12:31;;;;;;;33.67;17.52;;;;;;;;;;5094744;28;20052;-59
2021/10/29 01:15:01;;;;;;;35.45;17.48;;;;;;;;;;5094255;28;20059;-60
2021/10/29 01:17:28;;;;;;;33.75;18.60;;;;;;;;;;5094613;28;20048;-59
2021/10/29 01:19:57;;;;;;;34.22;16.77;;;;;;;;;;5094506;28;20048;-60
2021/10/29 01:22:26;;;;;;;32.00;16.67;;;;;;;;;;5094183;28;20118;-60
2021/10/29 01:24:54;;;;;;;32.45;16.15;;;;;;;;;;5094327;28;20058;-59
2021/10/29 01:27:21;;;;;;;31.45;17.45;;;;;;;;;;5094459;28;20048;-60
2021/10/29 01:29:49;;;;;;;34.83;16.98;;;;;;;;;;5094266;28;20126;-59
2021/10/29 01:32:17;;;;;;;36.50;17.30;;;;;;;;;;5094167;28;20044;-59
2021/10/29 01:34:44;;;;;;;32.15;17.50;;;;;;;;;;5094236;28;20054;-58
2021/10/29 01:37:13;;;;;;;34.30;18.92;;;;;;;;;;5094474;28;20467;-59
2021/10/29 01:39:42;;;;;;;33.83;17.20;;;;;;;;;;5094198;28;20507;-59
2021/10/29 01:42:10;;;;;;;31.35;17.50;;;;;;;;;;5094049;28;20056;-59
2021/10/29 01:44:37;;;;;;;32.72;17.98;;;;;;;;;;5094582;28;20052;-58
2021/10/29 01:47:04;;;;;;;29.98;16.67;;;;;;;;;;5094128;28;20052;-58
2021/10/29 01:49:31;;;;;;;34.75;17.02;;;;;;;;;;5094086;28;20546;-59
2021/10/29 01:51:59;;;;;;;32.80;16.45;;;;;;;;;;5093860;28;20044;-59
2021/10/29 01:54:26;;;;;;;29.42;15.77;;;;;;;;;;5094006;28;20052;-58
2021/10/29 01:56:56;;;;;;;32.88;16.77;;;;;;;;;;5094028;28;20071;-59
2021/10/29 01:59:23;;;;;;;26.73;15.77;;;;;;;;;;5093902;28;20059;-59
2021/10/29 02:01:50;;;;;;;29.90;16.13;;;;;;;;;;5093670;28;20044;-59
2021/10/29 02:04:17;;;;;;;25.38;15.02;;;;;;;;;;5093516;28;20052;-59
2021/10/29 02:06:44;;;;;;;29.23;15.07;;;;;;;;;;5093504;28;20101;-57
2021/10/29 02:09:11;;;;;;;27.42;14.73;;;;;;;;;;5093953;28;20435;-58
2021/10/29 02:11:38;;;;;;;29.50;16.40;;;;;;;;;;5093434;28;20446;-59
2021/10/29 02:14:06;;;;;;;32.25;16.52;;;;;;;;;;5093290;28;20044;-59
2021/10/29 02:16:33;;;;;;;30.05;15.65;;;;;;;;;;5093192;28;20500;-59
2021/10/29 02:19:01;;;;;;;29.27;16.67;;;;;;;;;;5093350;28;20067;-59
2021/10/29 02:21:29;;;;;;;32.05;16.55;;;;;;;;;;5093158;28;20152;-59
2021/10/29 02:23:57;;;;;;;28.38;15.90;;;;;;;;;;5093024;28;20040;-58
2021/10/29 02:26:24;;;;;;;26.52;15.68;;;;;;;;;;5093036;28;20082;-59
2021/10/29 02:28:51;;;;;;;27.55;15.55;;;;;;;;;;5093257;28;20040;-59
2021/10/29 02:31:20;;;;;;;32.95;15.70;;;;;;;;;;5093032;28;20044;-59
2021/10/29 02:33:47;;;;;;;30.00;16.65;;;;;;;;;;5092943;28;20040;-56
2021/10/29 02:36:14;;;;;;;32.55;16.15;;;;;;;;;;5092901;28;20047;-58
2021/10/29 02:38:40;;;;;;;27.33;16.20;;;;;;;;;;5092815;28;20048;-56
2021/10/29 02:41:07;;;;;;;29.10;16.08;;;;;;;;;;5092558;28;20048;-59
2021/10/29 02:43:35;;;;;;;29.17;15.88;;;;;;;;;;5092842;28;20052;-59
2021/10/29 02:46:01;;;;;;;27.02;14.77;;;;;;;;;;5092547;28;20059;-59
2021/10/29 02:48:30;;;;;;;28.55;17.17;;;;;;;;;;5092761;28;20046;-59
2021/10/29 02:50:57;;;;;;;27.48;15.10;;;;;;;;;;5092006;28;20044;-60
2021/10/29 02:53:24;;;;;;;26.63;14.95;;;;;;;;;;5092684;28;20686;-59
2021/10/29 02:55:51;;;;;;;26.17;15.02;;;;;;;;;;5092617;28;20054;-59
2021/10/29 02:58:18;;;;;;;30.05;14.88;;;;;;;;;;5092414;28;20044;-56
2021/10/29 03:00:45;;;;;;;29.45;16.58;;;;;;;;;;5092360;28;20052;-60
2021/10/29 03:03:12;;;;;;;28.58;14.73;;;;;;;;;;5092302;28;20048;-58
2021/10/29 03:05:41;;;;;;;26.38;14.93;;;;;;;;;;5092183;28;20054;-58
2021/10/29 03:08:08;;;;;;;26.02;14.60;;;;;;;;;;5092313;28;20056;-57
2021/10/29 03:10:35;;;;;;;26.98;15.35;;;;;;;;;;5092114;28;20416;-59
2021/10/29 03:13:02;;;;;;;28.80;15.25;;;;;;;;;;5092154;28;20056;-57
2021/10/29 03:15:29;;;;;;;27.77;14.43;;;;;;;;;;5091995;28;20051;-59
2021/10/29 03:17:56;;;;;;;24.85;14.65;;;;;;;;;;5092037;28;20051;-56
2021/10/29 03:20:24;;;;;;;25.70;14.20;;;;;;;;;;5092144;28;20052;-59
2021/10/29 03:22:53;;;;;;;28.70;15.75;;;;;;;;;;5091789;28;20044;-57
2021/10/29 03:25:20;;;;;;;25.70;14.73;;;;;;;;;;5091679;28;20052;-58
2021/10/29 03:27:47;;;;;;;24.02;14.48;;;;;;;;;;5091911;28;20044;-56
2021/10/29 03:30:13;;;;;;;26.60;14.70;;;;;;;;;;5091944;28;20054;-60
2021/10/29 03:32:40;;;;;;;24.88;15.18;;;;;;;;;;5092018;28;20108;-57
2021/10/29 03:35:08;;;;;;;27.15;15.57;;;;;;;;;;5091705;28;20044;-54
2021/10/29 03:37:52;;;;;;;27.45;16.08;;;;;;;;;;5092065;28;20138;-58
2021/10/29 03:40:27;;;;;;;26.95;15.70;;;;;;;;;;5092016;28;20117;-58
2021/10/29 03:43:03;;;;;;;26.13;15.68;;;;;;;;;;5091904;28;20576;-58
2021/10/29 03:45:31;;;;;;;29.35;15.77;;;;;;;;;;5091504;28;20063;-57
2021/10/29 03:48:00;;;;;;;27.58;15.93;;;;;;;;;;5091664;28;20140;-58
2021/10/29 03:50:30;;;;;;;25.77;14.60;;;;;;;;;;5092091;28;20051;-57
2021/10/29 03:53:01;;;;;;;23.17;14.52;;;;;;;;;;5091820;28;20527;-57
2021/10/29 03:55:34;;;;;;;;;;;;;;;;;;5092261;28;20048;-57
2021/10/29 03:58:01;;;;;;;26.05;13.95;;;;;;;;;;5092005;28;19920;-58
2021/10/29 04:00:30;;;;;;;26.02;13.80;;;;;;;;;;5091603;28;20048;-59
2021/10/29 04:03:00;;;;;;;24.00;13.43;;;;;;;;;;5092978;28;20143;-57
2021/10/29 04:05:28;;;;;;;26.23;15.30;;;;;;;;;;5095456;28;20105;-58
2021/10/29 04:07:55;;;;;;;26.65;15.27;;;;;;;;;;5095908;28;20055;-57
2021/10/29 04:10:25;;;;;;;27.30;13.88;;;;;;;;;;5095618;28;20044;-58
2021/10/29 04:12:54;;;;;;;27.60;14.43;;;;;;;;;;5095893;28;20462;-58
2021/10/29 04:15:22;;;;;;;24.58;13.75;;;;;;;;;;5095398;28;20135;-57
2021/10/29 04:17:49;;;;;;;26.58;14.65;;;;;;;;;;5095751;28;20052;-58
2021/10/29 04:20:17;;;;;;;23.77;14.00;;;;;;;;;;5095450;28;20044;-59
2021/10/29 04:22:45;;;;;;;23.38;14.05;;;;;;;;;;5095630;28;20059;-61
2021/10/29 04:25:12;;;;;;;25.05;13.60;;;;;;;;;;5095183;28;20413;-59
2021/10/29 04:27:44;;;;;;;22.80;13.25;;;;;;;;;;5095424;28;20105;-59
2021/10/29 04:30:16;;;;;;;24.13;13.18;;;;;;;;;;5095155;28;20056;-57
2021/10/29 04:32:43;;;;;;;22.08;13.60;;;;;;;;;;5095503;28;20386;-60
2021/10/29 04:35:11;;;;;;;24.27;13.68;;;;;;;;;;5095080;28;20055;-60
2021/10/29 04:37:40;;;;;;;23.67;13.07;;;;;;;;;;5095185;28;20052;-59
2021/10/29 04:40:08;;;;;;;24.38;14.13;;;;;;;;;;5094935;28;20058;-60
2021/10/29 04:42:35;;;;;;;28.08;15.95;;;;;;;;;;5094802;28;20054;-60
2021/10/29 04:45:03;;;;;;;23.88;13.70;;;;;;;;;;5094401;28;20054;-58
2021/10/29 04:47:32;;;;;;;24.63;13.82;;;;;;;;;;5094982;28;20046;-61
2021/10/29 04:49:59;;;;;;;25.30;15.05;;;;;;;;;;5094950;28;20413;-59
2021/10/29 04:52:26;;;;;;;27.58;14.18;;;;;;;;;;5094483;28;20063;-58
2021/10/29 04:54:53;;;;;;;24.95;14.38;;;;;;;;;;5094503;28;20055;-59
2021/10/29 04:57:20;;;;;;;23.90;13.73;;;;;;;;;;5094826;28;20444;-57
2021/10/29 04:59:46;;;;;;;24.75;13.65;;;;;;;;;;5094580;28;20047;-59
2021/10/29 05:02:13;;;;;;;26.88;13.93;;;;;;;;;;5094647;28;20052;-58
2021/10/29 05:04:42;;;;;;;25.38;14.02;;;;;;;;;;5094313;28;20175;-60
2021/10/29 05:07:09;;;;;;;22.92;14.15;;;;;;;;;;5094591;28;20047;-58
2021/10/29 05:09:36;;;;;;;27.10;14.57;;;;;;;;;;5094658;28;20166;-58
2021/10/29 05:12:03;;;;;;;25.90;15.32;;;;;;;;;;5094383;28;20048;-59
2021/10/29 05:14:30;;;;;;;23.65;14.05;;;;;;;;;;5094120;28;20064;-59
2021/10/29 05:16:57;;;;;;;25.33;13.55;;;;;;;;;;5094294;28;20088;-58
2021/10/29 05:19:24;;;;;;;26.17;13.43;;;;;;;;;;5094552;28;20081;-59
2021/10/29 05:21:52;;;;;;;23.67;14.30;;;;;;;;;;5094173;28;20488;-59
2021/10/29 05:24:19;;;;;;;24.63;13.05;;;;;;;;;;5094314;28;20635;-59
2021/10/29 05:26:46;;;;;;;23.88;13.82;;;;;;;;;;5094009;28;20055;-61
2021/10/29 05:29:13;;;;;;;30.00;13.73;;;;;;;;;;5094461;28;20087;-60
2021/10/29 05:31:40;;;;;;;25.05;13.38;;;;;;;;;;5094131;28;20044;-61
2021/10/29 05:34:07;;;;;;;21.83;13.18;;;;;;;;;;5094369;28;20049;-59
2021/10/29 05:36:35;;;;;;;24.33;12.65;;;;;;;;;;5093852;28;20056;-58
2021/10/29 05:39:04;;;;;;;20.98;13.52;;;;;;;;;;5093984;28;20060;-60
2021/10/29 05:41:31;;;;;;;21.10;12.23;;;;;;;;;;5093713;28;20057;-58
2021/10/29 05:43:59;;;;;;;24.90;13.30;;;;;;;;;;5093817;28;20492;-60
2021/10/29 05:46:30;;;;;;;27.63;14.75;;;;;;;;;;5093748;28;20520;-61
2021/10/29 05:48:56;;;;;;;;;;;;;;;;;;5094263;28;20142;-60
2021/10/29 05:51:23;;;;;;;21.88;12.77;;;;;;;;;;5093618;28;19924;-60
2021/10/29 05:54:08;;;;;;;22.42;13.20;;;;;;;;;;5093953;28;20056;-60
2021/10/29 05:56:36;;;;;;;21.08;12.40;;;;;;;;;;5093364;28;20047;-60
2021/10/29 05:59:05;;;;;;;20.65;13.38;;;;;;;;;;5093607;28;20055;-59
2021/10/29 06:01:32;;;;;;;17.90;12.15;;;;;;;;;;5093685;28;20068;-60
2021/10/29 06:04:00;;;;;;;21.02;13.02;;;;;;;;;;5093379;28;20052;-60
2021/10/29 06:06:27;;;;;;;23.83;13.55;;;;;;;;;;5093229;28;20066;-59
2021/10/29 06:08:54;;;;;;;21.33;12.75;;;;;;;;;;5093281;28;20052;-60
2021/10/29 06:11:21;;;;;;;22.38;12.32;;;;;;;;;;5087417;28;20703;-59
2021/10/29 06:13:50;;;;;;;22.35;12.55;;;;;;;;;;5072901;28;20109;-59
2021/10/29 06:16:17;;;;;;;23.73;13.93;;;;;;;;;;5072825;28;20048;-59
2021/10/29 06:18:44;;;;;;;20.08;12.63;;;;;;;;;;5072894;28;20048;-60
2021/10/29 06:21:12;;;;;;;24.02;14.15;;;;;;;;;;5063245;28;20132;-60
2021/10/29 06:23:44;;;;;;;24.60;13.40;;;;;;;;;;5052631;28;20044;-60
2021/10/29 06:26:21;;;;;;;22.27;13.00;;;;;;;;;;5052192;28;20313;-61
2021/10/29 06:28:48;;;;;;;21.05;11.90;;;;;;;;;;5052751;28;20059;-60
2021/10/29 06:31:18;;;;;;;23.20;13.35;;;;;;;;;;5064711;28;20048;-60
2021/10/29 06:33:46;;;;;;;27.37;15.47;;;;;;;;;;5072537;28;20052;-59
2021/10/29 06:36:13;;;;;;;40.63;20.02;;;;;;;;;;5072630;28;20733;-60
2021/10/29 06:38:40;;;;;;;29.42;16.73;;;;;;;;;;5072596;28;20063;-60
2021/10/29 06:41:08;;;;;;;23.88;14.38;;;;;;;;;;5062949;28;20045;-60
2021/10/29 06:43:39;;;;;;;34.03;16.48;;;;;;;;;;5052427;28;20049;-60
2021/10/29 06:46:16;;;;;;;22.00;12.65;;;;;;;;;;5053233;28;20053;-60
2021/10/29 06:48:54;;;;;;;22.27;13.35;;;;;;;;;;5052706;28;20056;-60
2021/10/29 06:59:50;;;;;;;21.73;13.23;;;;;;;;;;5052529;28;20060;-60
2021/10/29 07:05:21;;;;;;;25.08;13.65;;;;;;;;;;5029007;28;20055;-60
2021/10/29 07:41:09;;;;;;;23.63;13.52;;;;;;;;;;5076884;28;20500;-59
2021/10/29 07:43:39;;;;;;;24.80;13.80;;;;;;;;;;5076263;28;20147;-59
2021/10/29 07:46:07;;;;;;;25.90;13.52;;;;;;;;;;5077268;28;20044;-58
2021/10/29 07:48:35;;;;;;;25.13;13.70;;;;;;;;;;5075559;28;20059;-62
2021/10/29 07:51:02;;;;;;;25.15;13.70;;;;;;;;;;5076439;28;20040;-61
2021/10/29 07:53:31;;;;;;;24.90;14.98;;;;;;;;;;5076872;28;20059;-63
2021/10/29 07:56:00;;;;;;;33.00;17.23;;;;;;;;;;5078178;28;20409;-68
2021/10/29 07:58:27;;;;;;;48.80;23.25;;;;;;;;;;5080804;28;20405;-69
2021/10/29 08:00:59;;;;;;;38.13;17.38;;;;;;;;;;5076484;28;20062;-66
2021/10/29 08:03:27;;;;;;;28.67;15.00;;;;;;;;;;5078650;28;20067;-60
2021/10/29 08:05:54;;;;;;;30.63;16.63;;;;;;;;;;5074567;28;20055;-59
2021/10/29 08:08:21;;;;;;;26.15;14.07;;;;;;;;;;5077395;28;20084;-62
2021/10/29 08:10:51;;;;;;;32.38;15.70;;;;;;;;;;5078741;28;20047;-60
2021/10/29 08:13:20;;;;;;;25.85;14.80;;;;;;;;;;5075504;28;20045;-59
2021/10/29 08:15:58;;;;;;;25.45;14.55;;;;;;;;;;5082948;28;20080;-59
2021/10/29 08:18:26;;;;;;;23.35;13.32;;;;;;;;;;5075658;28;20810;-60
2021/10/29 08:20:53;;;;;;;25.70;14.00;;;;;;;;;;5076434;28;20420;-58
2021/10/29 08:23:21;;;;;;;23.67;14.40;;;;;;;;;;5077867;28;20127;-58
2021/10/29 08:25:48;;;;;;;28.58;14.82;;;;;;;;;;5073816;28;20044;-57
2021/10/29 08:28:16;;;;;;;24.63;13.52;;;;;;;;;;5079819;28;20058;-58
2021/10/29 08:30:44;;;;;;;25.50;13.30;;;;;;;;;;5075104;28;20059;-57
2021/10/29 08:33:11;;;;;;;26.27;15.80;;;;;;;;;;5075430;28;20062;-58
2021/10/29 08:35:38;;;;;;;25.58;15.07;;;;;;;;;;5075673;28;20048;-61
2021/10/29 08:38:05;;;;;;;26.77;15.57;;;;;;;;;;5075815;28;20052;-60
2021/10/29 08:40:32;;;;;;;35.00;18.30;;;;;;;;;;5075208;28;20056;-61
2021/10/29 08:42:59;;;;;;;31.02;16.08;;;;;;;;;;5075789;28;20154;-59
2021/10/29 08:45:28;;;;;;;32.35;16.13;;;;;;;;;;5075233;28;20049;-60
2021/10/29 08:47:57;;;;;;;38.88;19.77;;;;;;;;;;5075640;28;20056;-60
2021/10/29 08:50:24;;;;;;;27.45;14.73;;;;;;;;;;5081853;28;20040;-58
2021/10/29 08:52:52;;;;;;;30.42;16.42;;;;;;;;;;5080671;28;20048;-57
2021/10/29 08:55:24;;;;;;;28.10;15.60;;;;;;;;;;5081386;28;20040;-58
2021/10/29 08:57:51;;;;;;;31.33;15.90;;;;;;;;;;5080562;28;20040;-58
2021/10/29 09:00:22;;;;;;;40.78;20.45;;;;;;;;;;5079904;28;20048;-58
2021/10/29 09:02:58;;;;;;;;;;;;;;;;;;5079579;28;20060;-56
2021/10/29 09:05:30;;;;;;;27.90;14.27;;;;;;;;;;5083071;28;19924;-59
2021/10/29 09:08:09;;;;;;;30.27;16.45;;;;;;;;;;5079285;28;20053;-55
2021/10/29 09:10:50;;;;;;;28.15;14.88;;;;;;;;;;5083815;28;20048;-59
2021/10/29 09:32:56;;;;;;;29.45;16.02;;;;;;;;;;5082287;28;20444;-58
2021/10/29 09:35:27;;;;;;;32.30;17.17;;;;;;;;;;5091154;28;20079;-59
2021/10/29 09:37:57;;;;;;;30.42;16.42;;;;;;;;;;5074908;28;20060;-59
2021/10/29 09:40:25;;;;;;;32.72;17.25;;;;;;;;;;5075844;28;20501;-58
2021/10/29 09:42:54;;;;;;;26.95;15.68;;;;;;;;;;5091576;28;20135;-58
2021/10/29 09:45:26;;;;;;;37.65;19.70;;;;;;;;;;5082829;28;20048;-58
2021/10/29 09:48:12;;;;;;;30.30;15.13;;;;;;;;;;5092483;28;20044;-60
2021/10/29 09:50:48;;;;;;;27.73;15.63;;;;;;;;;;5069279;28;20453;-59
2021/10/29 09:56:22;;;;;;;28.85;15.27;;;;;;;;;;4999723;28;20049;-55
2021/10/29 09:58:51;;;;;;;30.25;15.60;;;;;;;;;;5037873;28;20053;-64
2021/10/29 10:01:19;;;;;;;32.33;17.70;;;;;;;;;;5075157;28;20132;-61
2021/10/29 10:03:48;;;;;;;29.40;16.35;;;;;;;;;;5082847;28;20052;-59
2021/10/29 10:06:19;;;;;;;30.88;17.33;;;;;;;;;;5070344;28;20534;-59
2021/10/29 10:08:46;;;;;;;41.50;20.45;;;;;;;;;;5078785;28;20071;-59
2021/10/29 10:11:15;;;;;;;28.52;16.52;;;;;;;;;;5081840;28;20056;-60
2021/10/29 10:13:43;;;;;;;32.05;17.95;;;;;;;;;;5077408;28;20056;-59
2021/10/29 10:16:10;;;;;;;38.88;22.40;;;;;;;;;;5091700;28;20079;-58
2021/10/29 10:18:40;;;;;;;44.45;24.38;;;;;;;;;;5090907;28;20146;-58
2021/10/29 10:21:12;;;;;;;32.22;18.40;;;;;;;;;;5086377;28;20052;-58
2021/10/29 10:23:45;;;;;;;33.80;17.55;;;;;;;;;;5069398;28;20060;-62
2021/10/29 10:29:18;;;;;;;33.67;19.33;;;;;;;;;;5076000;28;20468;-59
2021/10/29 10:40:53;;;;;;;27.67;15.82;;;;;;;;;;5074930;28;20425;-57
2021/10/29 10:43:37;;;;;;;32.60;17.17;;;;;;;;;;5077066;22;20460;-63
2021/10/29 10:46:10;;;;;;;33.83;18.58;;;;;;;;;;5055988;28;20457;-69
2021/10/29 10:48:44;;;;;;;31.23;16.88;;;;;;;;;;5056806;28;20139;-66
2021/10/29 10:54:34;;;;;;;31.33;17.13;;;;;;;;;;5069172;28;20434;-71
2021/10/29 11:05:28;;;;;;;34.30;18.90;;;;;;;;;;5045596;28;20040;-69
2021/10/29 11:10:56;;;;;;;34.70;18.05;;;;;;;;;;5077985;28;20094;-62
2021/10/29 11:13:24;;;;;;;32.63;19.30;;;;;;;;;;5082673;28;20062;-63
2021/10/29 11:15:59;;;;;;;32.78;18.80;;;;;;;;;;5078961;28;20416;-63
2021/10/29 11:18:33;;;;;;;33.42;17.98;;;;;;;;;;5077834;28;20051;-63
2021/10/29 11:21:12;;;;;;;38.72;20.30;;;;;;;;;;5077363;28;20040;-63
2021/10/29 11:23:50;;;;;;;35.33;18.15;;;;;;;;;;5076228;28;20109;-61
2021/10/29 11:26:23;;;;;;;36.28;19.95;;;;;;;;;;5075042;28;20044;-62
2021/10/29 11:28:54;;;;;;;29.48;17.48;;;;;;;;;;5075101;28;20080;-62
2021/10/29 11:31:23;;;;;;;;;;;;;;;;;;5077258;28;20138;-62
2021/10/29 11:33:53;;;;;;;34.53;20.63;;;;;;;;;;5075972;28;19931;-62
2021/10/29 11:36:21;;;;;;;33.35;18.40;;;;;;;;;;5076111;28;20044;-62
2021/10/29 11:38:51;;;;;;;31.02;17.98;;;;;;;;;;5076466;28;20485;-64
2021/10/29 11:41:21;;;;;;;35.17;19.20;;;;;;;;;;5074530;28;20045;-60
2021/10/29 11:43:48;;;;;;;37.83;20.15;;;;;;;;;;5076944;28;20040;-63
2021/10/29 11:46:18;;;;;;;33.78;19.10;;;;;;;;;;5075998;28;20044;-62
2021/10/29 11:48:56;;;;;;;33.95;18.50;;;;;;;;;;5076012;28;20044;-63
2021/10/29 11:51:24;;;;;;;32.78;18.55;;;;;;;;;;5076268;28;20074;-62
2021/10/29 11:53:55;;;;;;;37.67;20.55;;;;;;;;;;5078123;28;20048;-62
2021/10/29 11:56:27;;;;;;;;;;;;;;;;;;5078599;28;20048;-62
2021/10/29 11:59:07;;;;;;;33.42;18.33;;;;;;;;;;5075843;28;20408;-66
2021/10/29 12:01:39;;;;;;;44.05;20.85;;;;;;;;;;5077226;28;20718;-62
2021/10/29 12:09:35;;;;;;;38.85;21.50;;;;;;;;;;5074390;28;20535;-62
2021/10/29 12:12:08;;;;;;;44.90;24.23;;;;;;;;;;5075131;28;20171;-62
2021/10/29 12:14:37;;;;;;;42.20;22.65;;;;;;;;;;5076259;28;20056;-63
2021/10/29 12:17:06;;;;;;;46.40;23.55;;;;;;;;;;5074394;28;20239;-63
2021/10/29 12:19:36;;;;;;;45.28;24.63;;;;;;;;;;5073928;28;20136;-64
2021/10/29 12:22:11;;;;;;;44.60;24.70;;;;;;;;;;5076245;28;20123;-64
2021/10/29 12:24:46;;;;;;;40.58;22.35;;;;;;;;;;5076820;28;20102;-63
2021/10/29 12:27:28;;;;;;;41.10;21.48;;;;;;;;;;5079467;28;20047;-63
2021/10/29 12:30:16;;;;;;;41.33;22.02;;;;;;;;;;5080322;28;20450;-63
2021/10/29 12:33:06;;;;;;;39.75;20.92;;;;;;;;;;5081148;28;20547;-64
2021/10/29 12:38:36;;;;;;;37.75;20.92;;;;;;;;;;5079958;28;20114;-65
2021/10/29 12:58:58;;;;;;;38.83;19.92;;;;;;;;;;5079702;28;20055;-63
2021/10/29 13:01:27;;;;;;;36.97;20.15;;;;;;;;;;5078627;28;20127;-65
2021/10/29 13:03:57;;;;;;;34.22;19.77;;;;;;;;;;5079303;28;20357;-64
2021/10/29 13:06:32;;;;;;;37.60;19.38;;;;;;;;;;5078355;28;20129;-63
2021/10/29 13:09:00;;;;;;;31.95;19.35;;;;;;;;;;5079767;28;20625;-64
2021/10/29 13:11:28;;;;;;;33.70;18.95;;;;;;;;;;5077243;28;20139;-65
2021/10/29 13:13:59;;;;;;;35.17;20.65;;;;;;;;;;5078525;28;20556;-63
2021/10/29 13:16:27;;;;;;;35.88;20.02;;;;;;;;;;5078003;28;20037;-64
2021/10/29 13:19:11;;;;;;;47.92;25.35;;;;;;;;;;5079158;28;20472;-64
2021/10/29 13:22:25;;;;;;;42.20;21.50;;;;;;;;;;5078417;28;20048;-64
2021/10/29 13:25:02;;;;;;;35.65;19.75;;;;;;;;;;5079207;28;20041;-64
2021/10/29 13:27:51;;;;;;;38.95;21.48;;;;;;;;;;5079827;28;20124;-65
2021/10/29 13:52:31;;;;;;;31.30;19.30;;;;;;;;;;5078518;28;20503;-64
2021/10/29 13:58:02;;;;;;;35.10;20.35;;;;;;;;;;5033108;28;20075;-65
2021/10/29 14:17:06;;;;;;;57.90;31.35;;;;;;;;;;5079376;28;20504;-64
2021/10/29 14:30:35;;;;;;;44.40;22.98;;;;;;;;;;5080664;28;20108;-65
2021/10/29 14:33:06;;;;;;;42.27;22.23;;;;;;;;;;5078744;28;20424;-62
2021/10/29 14:35:34;;;;;;;;;;;;;;;;;;5075080;28;20052;-64
2021/10/29 14:38:07;;;;;;;42.65;20.33;;;;;;;;;;5075481;28;19921;-63
2021/10/29 14:40:38;;;;;;;40.45;22.35;;;;;;;;;;5077092;28;20048;-65
2021/10/29 14:43:10;;;;;;;43.05;22.90;;;;;;;;;;5077018;28;20036;-64
2021/10/29 14:45:42;;;;;;;43.88;22.58;;;;;;;;;;5077341;28;20472;-63
2021/10/29 14:48:24;;;;;;;41.20;22.08;;;;;;;;;;5077138;28;20424;-62
2021/10/29 15:05:03;;;;;;;39.03;22.60;;;;;;;;;;5076859;28;20053;-61
2021/10/29 15:16:08;;;;;;;42.33;22.90;;;;;;;;;;5078106;28;20085;-64
2021/10/29 15:27:10;;;;;;;58.05;27.70;;;;;;;;;;5062046;28;20055;-60
2021/10/29 15:32:44;;;;;;;46.55;23.75;;;;;;;;;;5072240;28;20272;-62
2021/10/29 15:43:48;;;;;;;50.03;23.85;;;;;;;;;;5075379;28;20491;-61
2021/10/29 15:46:17;;;;;;;45.38;22.33;;;;;;;;;;5074775;28;20044;-61
2021/10/29 15:48:50;;;;;;;44.53;23.25;;;;;;;;;;5074794;28;20056;-61
2021/10/29 15:51:17;;;;;;;48.15;24.60;;;;;;;;;;5074894;28;20052;-59
2021/10/29 15:53:46;;;;;;;46.10;23.33;;;;;;;;;;5077386;28;20108;-63
2021/10/29 15:56:27;;;;;;;45.55;23.17;;;;;;;;;;5076624;28;20040;-63
2021/10/29 15:59:03;;;;;;;;;;;;;;;;;;5078811;28;20052;-62
2021/10/29 16:01:37;;;;;;;50.50;24.02;;;;;;;;;;5080929;28;19920;-62
2021/10/29 16:17:45;;;;;;;52.63;24.40;;;;;;;;;;5078949;28;20510;-63
2021/10/29 16:20:14;;;;;;;54.97;26.02;;;;;;;;;;5079792;28;20527;-63
2021/10/29 16:22:41;;;;;;;50.28;24.08;;;;;;;;;;5080162;28;20062;-64
2021/10/29 16:25:11;;;;;;;52.47;25.27;;;;;;;;;;5079586;28;20058;-63
2021/10/29 16:27:47;;;;;;;48.50;23.88;;;;;;;;;;5079246;28;20476;-63
2021/10/29 16:30:15;;;;;;;54.38;25.75;;;;;;;;;;5080334;28;20063;-64
2021/10/29 16:33:06;;;;;;;49.40;24.25;;;;;;;;;;5079344;28;20344;-64
2021/10/29 16:35:38;;;;;;;50.42;25.67;;;;;;;;;;5079185;28;20041;-62
2021/10/29 16:38:07;;;;;;;47.42;23.98;;;;;;;;;;5079507;28;20135;-63
2021/10/29 16:40:34;;;;;;;50.03;25.38;;;;;;;;;;5078140;28;20074;-63
2021/10/29 16:45:42;;;;;;;51.40;25.30;;;;;;;;;;5112722;28;20066;-61
2021/10/29 16:48:09;;;;;;;48.00;25.20;;;;;;;;;;5113927;28;20043;-61
2021/10/29 16:50:37;;;;;;;49.17;23.90;;;;;;;;;;5114206;28;20288;-60
2021/10/29 16:53:04;;;;;;;51.25;27.05;;;;;;;;;;5114692;28;20070;-62
2021/10/29 16:55:31;;;;;;;48.70;24.73;;;;;;;;;;5114359;28;20051;-60
2021/10/29 16:57:58;;;;;;;46.80;23.73;;;;;;;;;;5114435;28;20492;-60
2021/10/29 17:00:25;;;;;;;48.33;23.27;;;;;;;;;;5113698;28;20050;-61
2021/10/29 17:02:54;;;;;;;50.22;23.92;;;;;;;;;;5113962;28;20058;-62
2021/10/29 17:05:21;;;;;;;46.80;23.90;;;;;;;;;;5113860;28;20436;-61
2021/10/29 17:07:50;;;;;;;46.17;22.58;;;;;;;;;;5113783;28;20511;-62
2021/10/29 17:10:20;;;;;;;48.15;25.02;;;;;;;;;;5101477;28;20059;-61
2021/10/29 17:12:47;;;;;;;55.78;25.35;;;;;;;;;;5101210;28;20096;-61
2021/10/29 17:15:19;;;;;;;44.33;22.40;;;;;;;;;;5099132;28;20054;-60
2021/10/29 17:17:47;;;;;;;47.17;23.67;;;;;;;;;;5089995;28;20076;-65
2021/10/29 17:20:21;;;;;;;46.70;23.83;;;;;;;;;;5094500;28;20102;-59
2021/10/29 17:22:50;;;;;;;46.53;23.90;;;;;;;;;;5100058;28;20054;-61
2021/10/29 17:25:20;;;;;;;56.03;26.98;;;;;;;;;;5089416;28;20060;-61
2021/10/29 17:27:47;;;;;;;63.90;29.50;;;;;;;;;;5099036;28;20055;-62
2021/10/29 17:30:15;;;;;;;51.08;24.98;;;;;;;;;;5098336;28;20447;-62
2021/10/29 17:32:44;;;;;;;49.83;24.50;;;;;;;;;;5100570;28;20055;-62
2021/10/29 17:35:11;;;;;;;55.00;25.08;;;;;;;;;;5099736;28;20324;-60
2021/10/29 17:37:38;;;;;;;47.85;24.55;;;;;;;;;;5099469;28;20044;-62
2021/10/29 17:40:09;;;;;;;54.28;25.52;;;;;;;;;;5100165;28;20405;-64
2021/10/29 17:42:37;;;;;;;50.47;24.10;;;;;;;;;;5101795;28;20089;-62
2021/10/29 17:45:07;;;;;;;49.65;23.60;;;;;;;;;;5100100;28;20054;-62
2021/10/29 17:47:35;;;;;;;60.08;25.58;;;;;;;;;;5089313;28;20512;-63
2021/10/29 17:50:02;;;;;;;57.15;24.67;;;;;;;;;;5090342;28;20417;-66
2021/10/29 17:52:29;;;;;;;52.72;25.67;;;;;;;;;;5088708;28;20052;-62
2021/10/29 17:54:58;;;;;;;52.72;25.83;;;;;;;;;;5096088;28;20056;-62
2021/10/29 17:57:27;;;;;;;55.03;24.55;;;;;;;;;;5099936;28;20520;-62
2021/10/29 17:59:55;;;;;;;46.38;23.33;;;;;;;;;;5099060;28;20500;-61
2021/10/29 18:02:23;;;;;;;52.13;24.92;;;;;;;;;;5098923;28;20254;-63
2021/10/29 18:04:51;;;;;;;49.92;26.73;;;;;;;;;;5099180;28;20044;-63
2021/10/29 18:07:20;;;;;;;53.55;25.90;;;;;;;;;;5100608;28;20052;-63
2021/10/29 18:09:47;;;;;;;50.28;25.33;;;;;;;;;;5099970;28;20512;-62
2021/10/29 18:12:14;;;;;;;54.15;25.20;;;;;;;;;;5097352;28;20048;-62
2021/10/29 18:14:44;;;;;;;48.70;24.00;;;;;;;;;;5098714;28;20044;-61
2021/10/29 18:17:13;;;;;;;54.78;25.20;;;;;;;;;;5098914;28;20048;-61
2021/10/29 18:19:41;;;;;;;58.78;26.27;;;;;;;;;;5099559;28;20143;-63
2021/10/29 18:22:09;;;;;;;58.40;25.98;;;;;;;;;;5097695;28;20052;-62
2021/10/29 18:24:36;;;;;;;56.10;26.27;;;;;;;;;;5097173;28;20040;-62